sensor_id;sensor_type;location;lat;lon;timestamp;pressure;altitude;pressure_sealevel;temperature;humidity
35778;BME280;21899;42.662;23.316;2022-11-02T00:02:22;95076.03;;;11.44;81.85
35778;BME280;21899;42.662;23.316;2022-11-02T00:04:47;95075.66;;;11.42;82.28
35778;BME280;21899;42.662;23.316;2022-11-02T00:07:13;95074.84;;;11.38;82.49
35778;BME280;21899;42.662;23.316;2022-11-02T00:09:38;95071.75;;;11.36;82.55
35778;BME280;21899;42.662;23.316;2022-11-02T00:12:04;95076.34;;;11.32;82.38
35778;BME280;21899;42.662;23.316;2022-11-02T00:14:29;95070.56;;;11.30;82.43
35778;BME280;21899;42.662;23.316;2022-11-02T00:16:54;95081.63;;;11.25;82.55
35778;BME280;21899;42.662;23.316;2022-11-02T00:19:20;95072.41;;;11.22;82.41
35778;BME280;21899;42.662;23.316;2022-11-02T00:21:45;95073.16;;;11.19;81.01
35778;BME280;21899;42.662;23.316;2022-11-02T00:24:10;95075.44;;;11.17;79.71
35778;BME280;21899;42.662;23.316;2022-11-02T00:26:36;95068.91;;;11.15;79.60
35778;BME280;21899;42.662;23.316;2022-11-02T00:29:03;95071.19;;;11.13;79.82
35778;BME280;21899;42.662;23.316;2022-11-02T00:31:29;95075.41;;;11.10;79.79
35778;BME280;21899;42.662;23.316;2022-11-02T00:33:56;95066.19;;;11.08;80.25
35778;BME280;21899;42.662;23.316;2022-11-02T00:36:21;95068.44;;;11.06;81.04
35778;BME280;21899;42.662;23.316;2022-11-02T00:38:48;95070.75;;;11.04;81.74
35778;BME280;21899;42.662;23.316;2022-11-02T00:41:14;95063.06;;;10.99;82.04
35778;BME280;21899;42.662;23.316;2022-11-02T00:43:39;95068.38;;;10.95;82.02
35778;BME280;21899;42.662;23.316;2022-11-02T00:46:04;95072.91;;;10.91;82.76
35778;BME280;21899;42.662;23.316;2022-11-02T00:48:30;95061.09;;;10.92;83.38
35778;BME280;21899;42.662;23.316;2022-11-02T00:50:55;95062.56;;;10.90;83.62
35778;BME280;21899;42.662;23.316;2022-11-02T00:53:20;95058.78;;;10.91;84.07
35778;BME280;21899;42.662;23.316;2022-11-02T00:55:45;95060.63;;;10.87;84.05
35778;BME280;21899;42.662;23.316;2022-11-02T00:58:11;95061.38;;;10.84;84.67
35778;BME280;21899;42.662;23.316;2022-11-02T01:00:37;95064.81;;;10.81;85.08
35778;BME280;21899;42.662;23.316;2022-11-02T01:03:02;95056.78;;;10.81;85.59
35778;BME280;21899;42.662;23.316;2022-11-02T01:05:27;95067.88;;;10.83;85.92
35778;BME280;21899;42.662;23.316;2022-11-02T01:07:53;95064.06;;;10.84;86.50
35778;BME280;21899;42.662;23.316;2022-11-02T01:10:18;95065.19;;;10.79;86.43
35778;BME280;21899;42.662;23.316;2022-11-02T01:12:43;95073.97;;;10.80;86.98
35778;BME280;21899;42.662;23.316;2022-11-02T01:15:09;95065.94;;;10.80;87.24
35778;BME280;21899;42.662;23.316;2022-11-02T01:17:37;95073.22;;;10.79;85.04
35778;BME280;21899;42.662;23.316;2022-11-02T01:20:02;95065.13;;;10.76;84.51
35778;BME280;21899;42.662;23.316;2022-11-02T01:22:28;95072.03;;;10.77;84.65
35778;BME280;21899;42.662;23.316;2022-11-02T01:24:54;95068.94;;;10.75;85.08
35778;BME280;21899;42.662;23.316;2022-11-02T01:27:19;95078.50;;;10.72;84.88
35778;BME280;21899;42.662;23.316;2022-11-02T01:29:44;95067.75;;;10.69;84.59
35778;BME280;21899;42.662;23.316;2022-11-02T01:32:10;95067.75;;;10.69;84.53
35778;BME280;21899;42.662;23.316;2022-11-02T01:34:35;95071.16;;;10.66;84.72
35778;BME280;21899;42.662;23.316;2022-11-02T01:37:00;95057.72;;;10.62;85.12
35778;BME280;21899;42.662;23.316;2022-11-02T01:39:25;95047.81;;;10.63;85.62
35778;BME280;21899;42.662;23.316;2022-11-02T01:41:51;95056.53;;;10.60;85.72
35778;BME280;21899;42.662;23.316;2022-11-02T01:47:02;95051.50;;;10.51;85.88
35778;BME280;21899;42.662;23.316;2022-11-02T01:49:28;95044.59;;;10.50;85.68
35778;BME280;21899;42.662;23.316;2022-11-02T01:52:04;95044.97;;;10.48;85.41
35778;BME280;21899;42.662;23.316;2022-11-02T01:54:31;95044.16;;;10.44;85.63
35778;BME280;21899;42.662;23.316;2022-11-02T01:57:06;95049.13;;;10.42;85.76
35778;BME280;21899;42.662;23.316;2022-11-02T01:59:37;95043.38;;;10.40;85.69
35778;BME280;21899;42.662;23.316;2022-11-02T02:02:06;95038.75;;;10.37;86.32
35778;BME280;21899;42.662;23.316;2022-11-02T02:04:35;95039.50;;;10.34;86.07
35778;BME280;21899;42.662;23.316;2022-11-02T02:07:00;95037.84;;;10.23;87.13
35778;BME280;21899;42.662;23.316;2022-11-02T02:09:26;95032.47;;;10.23;87.74
35778;BME280;21899;42.662;23.316;2022-11-02T02:11:52;95041.53;;;10.11;87.86
35778;BME280;21899;42.662;23.316;2022-11-02T02:14:18;95038.34;;;10.06;88.69
35778;BME280;21899;42.662;23.316;2022-11-02T02:19:39;95035.69;;;10.06;89.34
35778;BME280;21899;42.662;23.316;2022-11-02T02:27:16;95031.06;;;10.03;88.77
35778;BME280;21899;42.662;23.316;2022-11-02T02:35:00;95033.59;;;9.92;89.91
35778;BME280;21899;42.662;23.316;2022-11-02T02:40:00;95034.44;;;9.96;89.46
35778;BME280;21899;42.662;23.316;2022-11-02T02:42:31;95034.44;;;9.96;89.63
35778;BME280;21899;42.662;23.316;2022-11-02T02:47:44;95034.28;;;9.86;90.18
35778;BME280;21899;42.662;23.316;2022-11-02T02:50:22;95036.97;;;9.86;90.14
35778;BME280;21899;42.662;23.316;2022-11-02T02:52:49;95034.66;;;9.84;91.62
35778;BME280;21899;42.662;23.316;2022-11-02T02:55:17;95032.63;;;9.74;91.84
35778;BME280;21899;42.662;23.316;2022-11-02T02:57:44;95035.91;;;9.64;92.25
35778;BME280;21899;42.662;23.316;2022-11-02T03:00:11;95030.22;;;9.66;92.87
35778;BME280;21899;42.662;23.316;2022-11-02T03:02:36;95030.25;;;9.69;92.78
35778;BME280;21899;42.662;23.316;2022-11-02T03:05:20;95025.75;;;9.73;92.57
35778;BME280;21899;42.662;23.316;2022-11-02T03:07:46;95031.88;;;9.77;92.38
35778;BME280;21899;42.662;23.316;2022-11-02T03:10:33;95031.94;;;9.81;92.03
35778;BME280;21899;42.662;23.316;2022-11-02T03:15:39;95031.25;;;9.87;92.73
35778;BME280;21899;42.662;23.316;2022-11-02T03:28:17;95047.19;;;9.80;93.30
35778;BME280;21899;42.662;23.316;2022-11-02T03:30:48;95044.78;;;9.68;93.76
35778;BME280;21899;42.662;23.316;2022-11-02T03:33:18;95039.00;;;9.66;94.53
35778;BME280;21899;42.662;23.316;2022-11-02T03:35:52;95035.91;;;9.64;94.15
35778;BME280;21899;42.662;23.316;2022-11-02T03:38:24;95045.75;;;9.57;94.80
35778;BME280;21899;42.662;23.316;2022-11-02T03:40:53;95040.78;;;9.55;94.44
35778;BME280;21899;42.662;23.316;2022-11-02T03:43:21;95038.31;;;9.43;95.84
35778;BME280;21899;42.662;23.316;2022-11-02T03:45:50;95039.13;;;9.47;94.64
35778;BME280;21899;42.662;23.316;2022-11-02T03:48:17;95032.13;;;9.39;95.17
35778;BME280;21899;42.662;23.316;2022-11-02T03:50:48;95031.31;;;9.35;95.45
35778;BME280;21899;42.662;23.316;2022-11-02T03:55:59;95032.81;;;9.33;95.60
35778;BME280;21899;42.662;23.316;2022-11-02T03:58:26;95033.59;;;9.33;96.42
35778;BME280;21899;42.662;23.316;2022-11-02T04:00:53;95029.81;;;9.38;95.51
35778;BME280;21899;42.662;23.316;2022-11-02T04:03:20;95028.97;;;9.30;96.54
35778;BME280;21899;42.662;23.316;2022-11-02T04:05:46;95038.09;;;9.29;97.10
35778;BME280;21899;42.662;23.316;2022-11-02T04:08:11;95030.84;;;9.30;97.36
35778;BME280;21899;42.662;23.316;2022-11-02T04:10:45;95029.72;;;9.31;97.06
35778;BME280;21899;42.662;23.316;2022-11-02T04:13:29;95028.66;;;9.35;97.77
35778;BME280;21899;42.662;23.316;2022-11-02T04:16:13;95032.81;;;9.33;97.23
35778;BME280;21899;42.662;23.316;2022-11-02T04:18:38;95032.06;;;9.32;97.87
35778;BME280;21899;42.662;23.316;2022-11-02T04:21:22;95035.47;;;9.33;97.88
35778;BME280;21899;42.662;23.316;2022-11-02T04:23:48;95036.66;;;9.35;98.16
35778;BME280;21899;42.662;23.316;2022-11-02T04:26:32;95034.00;;;9.35;98.21
35778;BME280;21899;42.662;23.316;2022-11-02T04:28:57;95034.38;;;9.37;98.54
35778;BME280;21899;42.662;23.316;2022-11-02T04:31:22;95040.16;;;9.39;99.02
35778;BME280;21899;42.662;23.316;2022-11-02T04:33:47;95037.41;;;9.36;98.77
35778;BME280;21899;42.662;23.316;2022-11-02T04:36:13;95044.56;;;9.28;98.07
35778;BME280;21899;42.662;23.316;2022-11-02T04:38:38;95041.06;;;9.24;98.29
35778;BME280;21899;42.662;23.316;2022-11-02T04:41:07;95037.28;;;9.25;98.11
35778;BME280;21899;42.662;23.316;2022-11-02T04:43:51;95035.66;;;9.20;98.46
35778;BME280;21899;42.662;23.316;2022-11-02T04:46:17;95035.66;;;9.20;98.25
35778;BME280;21899;42.662;23.316;2022-11-02T04:48:42;95036.38;;;9.17;97.78
35778;BME280;21899;42.662;23.316;2022-11-02T04:51:07;95036.69;;;9.12;98.39
35778;BME280;21899;42.662;23.316;2022-11-02T04:53:33;95035.94;;;9.12;98.71
35778;BME280;21899;42.662;23.316;2022-11-02T04:55:59;95033.22;;;9.08;99.05
35778;BME280;21899;42.662;23.316;2022-11-02T04:58:24;95033.97;;;9.09;98.88
35778;BME280;21899;42.662;23.316;2022-11-02T05:00:49;95033.97;;;9.09;99.24
35778;BME280;21899;42.662;23.316;2022-11-02T05:03:15;95032.38;;;9.04;99.64
35778;BME280;21899;42.662;23.316;2022-11-02T05:05:40;95036.13;;;9.00;99.66
35778;BME280;21899;42.662;23.316;2022-11-02T05:08:05;95042.25;;;9.00;100.00
35778;BME280;21899;42.662;23.316;2022-11-02T05:10:30;95041.53;;;9.03;99.65
35778;BME280;21899;42.662;23.316;2022-11-02T05:12:56;95042.31;;;9.04;100.00
35778;BME280;21899;42.662;23.316;2022-11-02T05:15:22;95045.78;;;9.08;100.00
35778;BME280;21899;42.662;23.316;2022-11-02T05:17:47;95047.00;;;9.14;100.00
35778;BME280;21899;42.662;23.316;2022-11-02T05:20:12;95051.75;;;9.24;100.00
35778;BME280;21899;42.662;23.316;2022-11-02T05:22:40;95046.41;;;9.24;100.00
35778;BME280;21899;42.662;23.316;2022-11-02T05:25:05;95050.34;;;9.30;100.00
35778;BME280;21899;42.662;23.316;2022-11-02T05:27:30;95052.59;;;9.28;99.84
35778;BME280;21899;42.662;23.316;2022-11-02T05:29:55;95056.53;;;9.38;99.64
35778;BME280;21899;42.662;23.316;2022-11-02T05:32:21;95065.38;;;9.42;99.13
35778;BME280;21899;42.662;23.316;2022-11-02T05:34:46;95068.56;;;9.51;98.48
35778;BME280;21899;42.662;23.316;2022-11-02T05:37:11;95073.59;;;9.56;98.65
35778;BME280;21899;42.662;23.316;2022-11-02T05:39:37;95072.19;;;9.65;98.36
35778;BME280;21899;42.662;23.316;2022-11-02T05:42:02;95071.94;;;9.74;97.55
35778;BME280;21899;42.662;23.316;2022-11-02T05:44:28;95073.53;;;9.78;97.31
35778;BME280;21899;42.662;23.316;2022-11-02T05:46:53;95076.34;;;9.89;96.45
35778;BME280;21899;42.662;23.316;2022-11-02T05:49:18;95078.75;;;9.97;95.80
35778;BME280;21899;42.662;23.316;2022-11-02T05:51:43;95083.38;;;10.00;95.58
35778;BME280;21899;42.662;23.316;2022-11-02T05:54:09;95087.28;;;10.06;95.38
35778;BME280;21899;42.662;23.316;2022-11-02T05:56:34;95099.59;;;10.11;94.60
35778;BME280;21899;42.662;23.316;2022-11-02T05:58:59;95100.44;;;10.18;93.55
35778;BME280;21899;42.662;23.316;2022-11-02T06:01:24;95089.88;;;10.29;93.06
35778;BME280;21899;42.662;23.316;2022-11-02T06:03:50;95102.25;;;10.40;92.51
35778;BME280;21899;42.662;23.316;2022-11-02T06:06:15;95113.41;;;10.49;91.06
35778;BME280;21899;42.662;23.316;2022-11-02T06:08:40;95096.31;;;10.58;91.12
35778;BME280;21899;42.662;23.316;2022-11-02T06:11:07;95101.81;;;10.72;90.71
35778;BME280;21899;42.662;23.316;2022-11-02T06:13:32;95102.28;;;10.81;90.05
35778;BME280;21899;42.662;23.316;2022-11-02T06:15:58;95102.25;;;10.77;89.40
35778;BME280;21899;42.662;23.316;2022-11-02T06:18:24;95106.25;;;10.94;88.72
35778;BME280;21899;42.662;23.316;2022-11-02T06:20:49;95098.16;;;10.90;88.53
35778;BME280;21899;42.662;23.316;2022-11-02T06:23:14;95108.97;;;11.01;87.41
35778;BME280;21899;42.662;23.316;2022-11-02T06:25:42;95102.03;;;10.96;87.25
35778;BME280;21899;42.662;23.316;2022-11-02T06:28:08;95098.81;;;11.17;86.58
35778;BME280;21899;42.662;23.316;2022-11-02T06:30:33;95109.19;;;11.22;85.74
35778;BME280;21899;42.662;23.316;2022-11-02T06:32:59;95097.28;;;11.19;85.80
35778;BME280;21899;42.662;23.316;2022-11-02T06:35:24;95105.38;;;11.26;85.92
35778;BME280;21899;42.662;23.316;2022-11-02T06:37:49;95105.91;;;11.46;85.36
35778;BME280;21899;42.662;23.316;2022-11-02T06:40:15;95111.69;;;11.48;84.57
35778;BME280;21899;42.662;23.316;2022-11-02T06:42:40;95104.16;;;11.64;83.99
35778;BME280;21899;42.662;23.316;2022-11-02T06:45:06;95108.78;;;11.67;83.00
35778;BME280;21899;42.662;23.316;2022-11-02T06:47:32;95110.38;;;11.78;82.53
35778;BME280;21899;42.662;23.316;2022-11-02T06:49:58;95108.59;;;12.00;81.51
35778;BME280;21899;42.662;23.316;2022-11-02T06:52:24;95108.25;;;12.05;80.81
35778;BME280;21899;42.662;23.316;2022-11-02T06:54:49;95102.13;;;12.08;80.38
35778;BME280;21899;42.662;23.316;2022-11-02T06:57:14;95109.81;;;12.10;80.41
35778;BME280;21899;42.662;23.316;2022-11-02T06:59:39;95106.78;;;12.18;80.02
35778;BME280;21899;42.662;23.316;2022-11-02T07:02:05;95097.25;;;12.31;79.42
35778;BME280;21899;42.662;23.316;2022-11-02T07:04:30;95099.97;;;12.42;79.07
35778;BME280;21899;42.662;23.316;2022-11-02T07:06:55;95090.06;;;12.49;78.67
35778;BME280;21899;42.662;23.316;2022-11-02T07:09:20;95093.16;;;12.65;77.86
35778;BME280;21899;42.662;23.316;2022-11-02T07:11:46;95086.28;;;12.82;77.32
35778;BME280;21899;42.662;23.316;2022-11-02T07:14:11;95094.00;;;12.94;76.16
35778;BME280;21899;42.662;23.316;2022-11-02T07:16:36;95093.28;;;13.15;75.00
35778;BME280;21899;42.662;23.316;2022-11-02T07:19:01;95099.06;;;13.24;74.24
35778;BME280;21899;42.662;23.316;2022-11-02T07:21:27;95097.13;;;13.35;74.12
35778;BME280;21899;42.662;23.316;2022-11-02T07:23:52;95092.13;;;13.44;73.01
35778;BME280;21899;42.662;23.316;2022-11-02T07:26:17;95094.06;;;13.47;73.02
35778;BME280;21899;42.662;23.316;2022-11-02T07:28:44;95093.28;;;13.53;72.49
35778;BME280;21899;42.662;23.316;2022-11-02T07:31:09;95090.97;;;13.73;71.72
35778;BME280;21899;42.662;23.316;2022-11-02T07:33:34;95088.63;;;13.92;70.06
35778;BME280;21899;42.662;23.316;2022-11-02T07:36:01;95094.72;;;14.10;69.59
35778;BME280;21899;42.662;23.316;2022-11-02T07:38:26;95090.06;;;14.21;68.58
35778;BME280;21899;42.662;23.316;2022-11-02T07:40:51;95091.59;;;14.36;67.33
35778;BME280;21899;42.662;23.316;2022-11-02T07:43:16;95091.56;;;14.47;66.90
35778;BME280;21899;42.662;23.316;2022-11-02T07:45:42;95088.44;;;14.59;64.47
35778;BME280;21899;42.662;23.316;2022-11-02T07:48:07;95091.44;;;14.68;63.38
35778;BME280;21899;42.662;23.316;2022-11-02T07:50:32;95086.75;;;14.83;62.56
35778;BME280;21899;42.662;23.316;2022-11-02T07:52:57;95091.69;;;14.95;62.33
35778;BME280;21899;42.662;23.316;2022-11-02T07:55:24;95085.88;;;15.03;61.53
35778;BME280;21899;42.662;23.316;2022-11-02T08:00:19;95084.84;;;15.38;60.88
35778;BME280;21899;42.662;23.316;2022-11-02T08:02:44;95077.88;;;15.44;60.04
35778;BME280;21899;42.662;23.316;2022-11-02T08:05:09;95084.81;;;15.45;60.38
35778;BME280;21899;42.662;23.316;2022-11-02T08:07:34;95081.78;;;15.32;61.09
35778;BME280;21899;42.662;23.316;2022-11-02T08:10:00;95081.41;;;15.30;60.68
35778;BME280;21899;42.662;23.316;2022-11-02T08:12:25;95078.00;;;15.26;61.41
35778;BME280;21899;42.662;23.316;2022-11-02T08:14:50;95075.22;;;15.40;61.13
35778;BME280;21899;42.662;23.316;2022-11-02T08:17:16;95075.19;;;15.44;60.46
35778;BME280;21899;42.662;23.316;2022-11-02T08:19:41;95067.81;;;15.51;60.15
35778;BME280;21899;42.662;23.316;2022-11-02T08:22:06;95059.59;;;15.62;59.60
35778;BME280;21899;42.662;23.316;2022-11-02T08:24:32;95060.25;;;15.77;59.06
35778;BME280;21899;42.662;23.316;2022-11-02T08:26:57;95058.66;;;15.83;57.62
35778;BME280;21899;42.662;23.316;2022-11-02T08:29:22;95054.34;;;15.89;57.68
35778;BME280;21899;42.662;23.316;2022-11-02T08:31:48;95052.31;;;16.00;56.70
35778;BME280;21899;42.662;23.316;2022-11-02T08:34:13;95048.78;;;16.06;56.57
35778;BME280;21899;42.662;23.316;2022-11-02T08:36:38;95054.84;;;16.14;56.50
35778;BME280;21899;42.662;23.316;2022-11-02T08:39:04;95050.63;;;16.13;56.51
35778;BME280;21899;42.662;23.316;2022-11-02T08:41:29;95052.06;;;16.21;56.07
35778;BME280;21899;42.662;23.316;2022-11-02T08:43:54;95043.06;;;16.31;56.00
35778;BME280;21899;42.662;23.316;2022-11-02T08:46:21;95046.75;;;16.47;55.07
35778;BME280;21899;42.662;23.316;2022-11-02T08:48:46;95042.03;;;16.55;54.13
35778;BME280;21899;42.662;23.316;2022-11-02T08:51:11;95044.97;;;16.67;53.60
35778;BME280;21899;42.662;23.316;2022-11-02T08:53:36;95051.69;;;16.82;53.06
35778;BME280;21899;42.662;23.316;2022-11-02T08:56:02;95042.66;;;16.92;52.83
35778;BME280;21899;42.662;23.316;2022-11-02T08:58:27;95042.50;;;17.03;51.89
35778;BME280;21899;42.662;23.316;2022-11-02T09:00:52;95036.41;;;17.22;51.61
35778;BME280;21899;42.662;23.316;2022-11-02T09:03:18;95034.69;;;17.35;50.97
35778;BME280;21899;42.662;23.316;2022-11-02T09:05:45;95033.91;;;17.35;50.85
35778;BME280;21899;42.662;23.316;2022-11-02T09:08:17;95037.16;;;17.49;51.01
35778;BME280;21899;42.662;23.316;2022-11-02T09:10:43;95027.28;;;17.62;50.59
35778;BME280;21899;42.662;23.316;2022-11-02T09:13:09;95025.97;;;17.70;50.18
35778;BME280;21899;42.662;23.316;2022-11-02T09:15:35;95028.09;;;17.82;50.24
35778;BME280;21899;42.662;23.316;2022-11-02T09:18:01;95021.84;;;18.05;49.44
35778;BME280;21899;42.662;23.316;2022-11-02T09:20:26;95023.09;;;18.20;48.76
35778;BME280;21899;42.662;23.316;2022-11-02T09:22:51;95025.09;;;18.39;48.69
35778;BME280;21899;42.662;23.316;2022-11-02T09:25:17;95020.81;;;18.58;48.39
35778;BME280;21899;42.662;23.316;2022-11-02T09:27:42;95021.09;;;18.63;47.83
35778;BME280;21899;42.662;23.316;2022-11-02T09:30:08;95018.81;;;18.78;47.63
35778;BME280;21899;42.662;23.316;2022-11-02T09:32:34;95016.84;;;18.98;46.37
35778;BME280;21899;42.662;23.316;2022-11-02T09:34:59;95007.53;;;18.99;46.50
35778;BME280;21899;42.662;23.316;2022-11-02T09:37:25;95012.59;;;18.97;46.54
35778;BME280;21899;42.662;23.316;2022-11-02T09:39:51;95008.47;;;19.08;46.49
35778;BME280;21899;42.662;23.316;2022-11-02T09:42:34;95003.88;;;19.21;45.68
35778;BME280;21899;42.662;23.316;2022-11-02T09:45:13;95001.25;;;19.18;45.90
35778;BME280;21899;42.662;23.316;2022-11-02T09:47:53;94990.41;;;19.18;45.40
35778;BME280;21899;42.662;23.316;2022-11-02T09:50:24;94991.88;;;19.38;45.06
35778;BME280;21899;42.662;23.316;2022-11-02T09:52:54;94987.88;;;19.43;45.23
35778;BME280;21899;42.662;23.316;2022-11-02T09:55:23;94977.97;;;19.65;44.54
35778;BME280;21899;42.662;23.316;2022-11-02T09:57:52;94977.97;;;19.81;43.89
35778;BME280;21899;42.662;23.316;2022-11-02T10:00:19;94980.28;;;19.95;43.44
35778;BME280;21899;42.662;23.316;2022-11-02T10:10:38;94959.88;;;20.44;41.92
35778;BME280;21899;42.662;23.316;2022-11-02T10:13:21;94962.31;;;20.55;41.49
35778;BME280;21899;42.662;23.316;2022-11-02T10:18:28;94951.22;;;20.74;40.59
35778;BME280;21899;42.662;23.316;2022-11-02T10:20:58;94951.13;;;20.65;40.70
35778;BME280;21899;42.662;23.316;2022-11-02T10:25:52;94940.22;;;20.91;40.17
35778;BME280;21899;42.662;23.316;2022-11-02T10:28:19;94938.13;;;20.95;40.22
35778;BME280;21899;42.662;23.316;2022-11-02T10:30:45;94945.03;;;20.99;40.37
35778;BME280;21899;42.662;23.316;2022-11-02T10:33:12;94936.31;;;21.17;39.26
35778;BME280;21899;42.662;23.316;2022-11-02T10:35:44;94938.34;;;21.25;39.38
35778;BME280;21899;42.662;23.316;2022-11-02T10:38:17;94929.50;;;21.34;38.87
35778;BME280;21899;42.662;23.316;2022-11-02T10:51:07;94918.53;;;21.59;38.30
35778;BME280;21899;42.662;23.316;2022-11-02T10:53:43;94909.22;;;21.69;38.22
35778;BME280;21899;42.662;23.316;2022-11-02T10:56:11;94907.88;;;21.73;38.40
35778;BME280;21899;42.662;23.316;2022-11-02T10:58:39;94914.50;;;21.85;37.83
35778;BME280;21899;42.662;23.316;2022-11-02T11:01:09;94907.63;;;21.93;37.74
35778;BME280;21899;42.662;23.316;2022-11-02T11:06:36;94900.75;;;22.10;36.86
35778;BME280;21899;42.662;23.316;2022-11-02T11:09:06;94895.81;;;22.18;37.16
35778;BME280;21899;42.662;23.316;2022-11-02T11:11:39;94895.84;;;22.27;36.55
35778;BME280;21899;42.662;23.316;2022-11-02T11:18:55;94883.50;;;22.65;34.90
35778;BME280;21899;42.662;23.316;2022-11-02T11:21:20;94879.28;;;22.73;35.00
35778;BME280;21899;42.662;23.316;2022-11-02T11:23:46;94880.97;;;22.80;34.39
35778;BME280;21899;42.662;23.316;2022-11-02T11:26:24;94876.91;;;22.93;34.31
35778;BME280;21899;42.662;23.316;2022-11-02T11:28:54;94878.31;;;23.07;31.94
35778;BME280;21899;42.662;23.316;2022-11-02T11:31:20;94873.94;;;23.18;31.19
35778;BME280;21899;42.662;23.316;2022-11-02T11:38:45;94864.13;;;23.48;29.56
35778;BME280;21899;42.662;23.316;2022-11-02T11:41:12;94864.88;;;23.58;28.96
35778;BME280;21899;42.662;23.316;2022-11-02T11:43:38;94864.56;;;23.65;28.32
35778;BME280;21899;42.662;23.316;2022-11-02T11:46:05;94855.16;;;23.66;27.99
35778;BME280;21899;42.662;23.316;2022-11-02T11:51:18;94845.25;;;23.77;28.15
35778;BME280;21899;42.662;23.316;2022-11-02T11:54:32;94841.00;;;23.85;27.96
35778;BME280;21899;42.662;23.316;2022-11-02T11:56:32;94845.41;;;23.83;27.52
35778;BME280;21899;42.662;23.316;2022-11-02T11:58:58;94845.41;;;23.83;27.83
35778;BME280;21899;42.662;23.316;2022-11-02T12:01:23;94837.34;;;23.88;27.37
35778;BME280;21899;42.662;23.316;2022-11-02T12:06:31;94839.75;;;23.95;27.42
35778;BME280;21899;42.662;23.316;2022-11-02T12:14:18;94815.78;;;23.90;27.70
35778;BME280;21899;42.662;23.316;2022-11-02T12:22:45;94810.47;;;23.87;28.12
35778;BME280;21899;42.662;23.316;2022-11-02T12:24:57;94812.00;;;23.88;28.26
35778;BME280;21899;42.662;23.316;2022-11-02T12:45:48;94790.44;;;23.81;28.42
35778;BME280;21899;42.662;23.316;2022-11-02T12:48:22;94792.72;;;23.82;28.29
35778;BME280;21899;42.662;23.316;2022-11-02T12:53:34;94788.94;;;23.80;28.24
35778;BME280;21899;42.662;23.316;2022-11-02T12:56:01;94789.72;;;23.71;28.44
35778;BME280;21899;42.662;23.316;2022-11-02T12:58:28;94790.44;;;23.72;28.42
35778;BME280;21899;42.662;23.316;2022-11-02T13:03:37;94787.91;;;23.68;28.70
35778;BME280;21899;42.662;23.316;2022-11-02T13:06:08;94788.34;;;23.67;28.30
35778;BME280;21899;42.662;23.316;2022-11-02T13:11:06;94774.97;;;23.69;28.51
35778;BME280;21899;42.662;23.316;2022-11-02T13:13:35;94778.31;;;23.73;28.43
35778;BME280;21899;42.662;23.316;2022-11-02T13:16:02;94784.69;;;23.70;28.39
35778;BME280;21899;42.662;23.316;2022-11-02T13:18:29;94777.44;;;23.67;28.37
35778;BME280;21899;42.662;23.316;2022-11-02T13:20:58;94777.13;;;23.65;28.14
35778;BME280;21899;42.662;23.316;2022-11-02T13:25:51;94780.63;;;23.56;28.66
35778;BME280;21899;42.662;23.316;2022-11-02T13:31:03;94775.91;;;23.57;28.76
35778;BME280;21899;42.662;23.316;2022-11-02T13:33:43;94777.44;;;23.49;28.71
35778;BME280;21899;42.662;23.316;2022-11-02T13:36:11;94776.38;;;23.46;28.85
35778;BME280;21899;42.662;23.316;2022-11-02T13:38:44;94778.03;;;23.44;28.57
35778;BME280;21899;42.662;23.316;2022-11-02T13:46:27;94775.28;;;23.25;29.41
35778;BME280;21899;42.662;23.316;2022-11-02T13:49:00;94783.19;;;23.23;29.26
35778;BME280;21899;42.662;23.316;2022-11-02T13:51:35;94776.66;;;23.21;29.20
35778;BME280;21899;42.662;23.316;2022-11-02T13:54:04;94776.81;;;23.17;29.26
35778;BME280;21899;42.662;23.316;2022-11-02T13:56:31;94766.50;;;23.12;29.27
35778;BME280;21899;42.662;23.316;2022-11-02T13:59:00;94768.31;;;23.06;29.33
35778;BME280;21899;42.662;23.316;2022-11-02T14:01:29;94777.44;;;23.03;29.54
35778;BME280;21899;42.662;23.316;2022-11-02T14:03:56;94772.44;;;23.02;29.14
35778;BME280;21899;42.662;23.316;2022-11-02T14:06:22;94764.38;;;22.89;29.43
35778;BME280;21899;42.662;23.316;2022-11-02T14:08:50;94771.97;;;22.85;29.50
35778;BME280;21899;42.662;23.316;2022-11-02T14:16:39;94777.06;;;22.74;29.77
35778;BME280;21899;42.662;23.316;2022-11-02T14:22:02;94782.84;;;22.67;29.94
35778;BME280;21899;42.662;23.316;2022-11-02T14:26:58;94786.44;;;22.55;29.95
35778;BME280;21899;42.662;23.316;2022-11-02T14:37:43;94790.28;;;22.27;30.73
35778;BME280;21899;42.662;23.316;2022-11-02T14:47:43;94790.72;;;21.95;31.24
35778;BME280;21899;42.662;23.316;2022-11-02T14:52:34;94793.03;;;21.75;31.85
35778;BME280;21899;42.662;23.316;2022-11-02T14:55:05;94793.75;;;21.66;31.96
35778;BME280;21899;42.662;23.316;2022-11-02T14:59:57;94792.84;;;21.48;32.52
35778;BME280;21899;42.662;23.316;2022-11-02T15:02:30;94804.88;;;21.38;32.86
35778;BME280;21899;42.662;23.316;2022-11-02T15:04:58;94799.06;;;21.27;33.03
35778;BME280;21899;42.662;23.316;2022-11-02T15:25:08;94806.56;;;20.29;35.58
35778;BME280;21899;42.662;23.316;2022-11-02T15:27:34;94810.88;;;20.14;35.92
35778;BME280;21899;42.662;23.316;2022-11-02T15:30:01;94815.31;;;20.08;35.90
35778;BME280;21899;42.662;23.316;2022-11-02T15:32:27;94813.03;;;19.94;36.30
35778;BME280;21899;42.662;23.316;2022-11-02T15:34:54;94816.16;;;19.80;36.66
35778;BME280;21899;42.662;23.316;2022-11-02T15:37:26;94822.88;;;19.63;37.58
35778;BME280;21899;42.662;23.316;2022-11-02T15:39:57;94816.66;;;19.50;37.97
35778;BME280;21899;42.662;23.316;2022-11-02T15:42:27;94817.72;;;19.40;38.36
35778;BME280;21899;42.662;23.316;2022-11-02T15:52:49;94831.44;;;18.88;39.54
35778;BME280;21899;42.662;23.316;2022-11-02T15:55:19;94832.38;;;18.82;39.55
35778;BME280;21899;42.662;23.316;2022-11-02T16:00:23;94830.88;;;18.65;39.81
35778;BME280;21899;42.662;23.316;2022-11-02T16:02:57;94832.22;;;18.57;39.97